UAE777 KRDU-KATL
Flight info
| Callsign | UAE777 |
|---|---|
| Flight time | 0h 55m |
| Altitude | 34000 |
| Route | SHPRD4 SHPRD LEAVI OZZZI1 |
| Aircraft | A333/H-SDE3GHIJ2J3J5M1RVWXY/LB2D1 |
Departure
| Time | 2026-05-06 23:53 |
|---|---|
| Airport | Raleigh-Durham International Airport (KRDU) |
Arrival
| Time | 2026-05-07 00:49 |
|---|---|
| Airport | Hartsfield Jackson Atlanta International Airport (KATL) |
| Time | Latitude | Longitude | Altitude | Speed | Heading |
|---|---|---|---|---|---|
| 2026-05-06 23:22 | 35.87561 | -78.79675 | 386 ft | 0 kts | 135° |
| 2026-05-06 23:39 | 35.87576 | -78.79694 | 385 ft | 5 kts | 136° |
| 2026-05-06 23:39 | 35.87582 | -78.79738 | 383 ft | 6 kts | 59° |
| 2026-05-06 23:39 | 35.87579 | -78.79744 | 383 ft | 0 kts | 52° |
| 2026-05-06 23:45 | 35.87579 | -78.79743 | 383 ft | 0 kts | 52° |
| 2026-05-06 23:45 | 35.87600 | -78.79716 | 384 ft | 5 kts | 41° |
| 2026-05-06 23:46 | 35.87636 | -78.79688 | 384 ft | 8 kts | 25° |
| 2026-05-06 23:46 | 35.87720 | -78.79646 | 384 ft | 17 kts | 27° |
| 2026-05-06 23:46 | 35.87814 | -78.79548 | 386 ft | 17 kts | 45° |
| 2026-05-06 23:46 | 35.87914 | -78.79424 | 387 ft | 26 kts | 44° |
| 2026-05-06 23:47 | 35.88047 | -78.79262 | 392 ft | 26 kts | 45° |
| 2026-05-06 23:47 | 35.88147 | -78.79137 | 395 ft | 13 kts | 45° |
| 2026-05-06 23:47 | 35.88176 | -78.79060 | 398 ft | 8 kts | 93° |
| 2026-05-06 23:47 | 35.88198 | -78.78976 | 401 ft | 16 kts | 51° |
| 2026-05-06 23:48 | 35.88309 | -78.78835 | 404 ft | 29 kts | 45° |
| 2026-05-06 23:48 | 35.88454 | -78.78656 | 408 ft | 29 kts | 45° |
| 2026-05-06 23:48 | 35.88599 | -78.78477 | 407 ft | 28 kts | 45° |
| 2026-05-06 23:48 | 35.88739 | -78.78303 | 404 ft | 28 kts | 45° |
| 2026-05-06 23:49 | 35.88878 | -78.78132 | 403 ft | 23 kts | 45° |
| 2026-05-06 23:49 | 35.88974 | -78.77992 | 404 ft | 19 kts | 65° |
| 2026-05-06 23:49 | 35.89037 | -78.77857 | 406 ft | 17 kts | 48° |
| 2026-05-06 23:49 | 35.89119 | -78.77756 | 407 ft | 15 kts | 44° |
| 2026-05-06 23:50 | 35.89191 | -78.77672 | 410 ft | 13 kts | 30° |
| 2026-05-06 23:50 | 35.89286 | -78.77711 | 408 ft | 0 kts | 316° |
| 2026-05-06 23:51 | 35.89287 | -78.77712 | 408 ft | 0 kts | 316° |
| 2026-05-06 23:51 | 35.89293 | -78.77719 | 408 ft | 5 kts | 316° |
| 2026-05-06 23:51 | 35.89339 | -78.77785 | 407 ft | 8 kts | 297° |
| 2026-05-06 23:52 | 35.89344 | -78.77837 | 406 ft | 4 kts | 250° |
| 2026-05-06 23:52 | 35.89320 | -78.77880 | 405 ft | 7 kts | 227° |
| 2026-05-06 23:52 | 35.89312 | -78.77889 | 405 ft | 0 kts | 226° |
| 2026-05-06 23:52 | 35.89307 | -78.77895 | 404 ft | 7 kts | 226° |
| 2026-05-06 23:53 | 35.89086 | -78.78171 | 399 ft | 88 kts | 225° |
| 2026-05-06 23:53 | 35.88462 | -78.78945 | 402 ft | 163 kts | 226° |
| 2026-05-06 23:53 | 35.87569 | -78.80067 | 750 ft | 199 kts | 226° |
| 2026-05-06 23:53 | 35.86562 | -78.81287 | 1601 ft | 218 kts | 224° |
| 2026-05-06 23:54 | 35.85384 | -78.82623 | 2521 ft | 247 kts | 225° |
| 2026-05-06 23:54 | 35.84063 | -78.84120 | 3488 ft | 275 kts | 225° |
| 2026-05-06 23:54 | 35.82589 | -78.85768 | 4513 ft | 300 kts | 225° |
| 2026-05-06 23:54 | 35.80980 | -78.87512 | 5635 ft | 316 kts | 224° |
| 2026-05-06 23:55 | 35.79354 | -78.89229 | 6090 ft | 305 kts | 224° |
| 2026-05-06 23:55 | 35.77785 | -78.90916 | 6097 ft | 291 kts | 225° |
| 2026-05-06 23:55 | 35.76318 | -78.92501 | 6092 ft | 278 kts | 225° |
| 2026-05-06 23:55 | 35.74859 | -78.94070 | 6114 ft | 274 kts | 225° |
| 2026-05-06 23:56 | 35.73431 | -78.95600 | 6115 ft | 274 kts | 226° |
| 2026-05-06 23:56 | 35.72310 | -78.97447 | 6119 ft | 265 kts | 252° |
| 2026-05-06 23:56 | 35.71838 | -78.99606 | 6134 ft | 264 kts | 261° |
| 2026-05-06 23:56 | 35.71719 | -79.01855 | 6133 ft | 268 kts | 281° |
| 2026-05-06 23:57 | 35.72274 | -79.04029 | 6965 ft | 264 kts | 294° |
| 2026-05-06 23:57 | 35.73016 | -79.06023 | 7885 ft | 258 kts | 298° |
| 2026-05-06 23:57 | 35.73850 | -79.08004 | 8107 ft | 265 kts | 299° |
| 2026-05-06 23:57 | 35.74717 | -79.09995 | 8080 ft | 264 kts | 300° |
| 2026-05-06 23:58 | 35.75597 | -79.11994 | 8121 ft | 265 kts | 300° |
| 2026-05-06 23:58 | 35.76468 | -79.13966 | 8114 ft | 264 kts | 300° |
| 2026-05-06 23:58 | 35.77354 | -79.15971 | 8105 ft | 264 kts | 300° |
| 2026-05-06 23:58 | 35.78230 | -79.17955 | 8117 ft | 264 kts | 300° |
| 2026-05-06 23:59 | 35.79113 | -79.19955 | 8104 ft | 265 kts | 300° |
| 2026-05-06 23:59 | 35.79988 | -79.21939 | 8096 ft | 265 kts | 300° |
| 2026-05-06 23:59 | 35.80863 | -79.23925 | 8114 ft | 264 kts | 300° |
| 2026-05-06 23:59 | 35.81748 | -79.25933 | 8102 ft | 265 kts | 300° |
| 2026-05-07 00:00 | 35.82628 | -79.27934 | 8108 ft | 264 kts | 300° |
| 2026-05-07 00:00 | 35.83369 | -79.29973 | 8090 ft | 265 kts | 284° |
| 2026-05-07 00:00 | 35.83396 | -79.32239 | 8115 ft | 270 kts | 266° |
| 2026-05-07 00:00 | 35.83203 | -79.34564 | 8122 ft | 270 kts | 268° |
| 2026-05-07 00:01 | 35.83029 | -79.36852 | 8102 ft | 271 kts | 268° |
| 2026-05-07 00:01 | 35.82854 | -79.39170 | 8130 ft | 270 kts | 268° |
| 2026-05-07 00:01 | 35.82681 | -79.41454 | 8116 ft | 270 kts | 268° |
| 2026-05-07 00:01 | 35.82506 | -79.43778 | 8098 ft | 270 kts | 268° |
| 2026-05-07 00:02 | 35.82333 | -79.46048 | 8134 ft | 270 kts | 268° |
| 2026-05-07 00:02 | 35.82158 | -79.48353 | 8091 ft | 271 kts | 268° |
| 2026-05-07 00:02 | 35.81981 | -79.50663 | 8124 ft | 273 kts | 268° |
| 2026-05-07 00:02 | 35.81795 | -79.53069 | 8664 ft | 283 kts | 267° |
| 2026-05-07 00:03 | 35.81440 | -79.55434 | 9435 ft | 287 kts | 261° |
| 2026-05-07 00:03 | 35.81028 | -79.57838 | 10118 ft | 290 kts | 262° |
| 2026-05-07 00:03 | 35.80615 | -79.60272 | 10749 ft | 295 kts | 261° |
| 2026-05-07 00:03 | 35.80189 | -79.62773 | 11401 ft | 299 kts | 261° |
| 2026-05-07 00:04 | 35.79763 | -79.65278 | 12051 ft | 304 kts | 261° |
| 2026-05-07 00:04 | 35.79328 | -79.67832 | 12644 ft | 309 kts | 261° |
| 2026-05-07 00:04 | 35.78882 | -79.70449 | 13264 ft | 313 kts | 260° |
| 2026-05-07 00:04 | 35.78434 | -79.73077 | 13850 ft | 318 kts | 260° |
| 2026-05-07 00:05 | 35.77970 | -79.75791 | 14606 ft | 335 kts | 260° |
| 2026-05-07 00:05 | 35.77487 | -79.78612 | 15694 ft | 354 kts | 260° |
| 2026-05-07 00:05 | 35.76962 | -79.81670 | 16726 ft | 375 kts | 259° |
| 2026-05-07 00:05 | 35.76414 | -79.84857 | 17907 ft | 391 kts | 259° |
| 2026-05-07 00:06 | 35.75848 | -79.88145 | 18877 ft | 411 kts | 259° |
| 2026-05-07 00:06 | 35.75243 | -79.91650 | 19892 ft | 429 kts | 259° |
| 2026-05-07 00:06 | 35.74622 | -79.95232 | 21202 ft | 437 kts | 259° |
| 2026-05-07 00:06 | 35.73983 | -79.98923 | 22446 ft | 445 kts | 259° |
| 2026-05-07 00:07 | 35.73338 | -80.02647 | 23556 ft | 456 kts | 260° |
| 2026-05-07 00:07 | 35.72678 | -80.06439 | 24824 ft | 462 kts | 260° |
| 2026-05-07 00:07 | 35.71999 | -80.10333 | 26165 ft | 467 kts | 261° |
| 2026-05-07 00:07 | 35.71327 | -80.14189 | 27336 ft | 474 kts | 261° |
| 2026-05-07 00:08 | 35.70634 | -80.18162 | 28416 ft | 482 kts | 261° |
| 2026-05-07 00:08 | 35.69921 | -80.22232 | 29291 ft | 492 kts | 261° |
| 2026-05-07 00:08 | 35.69191 | -80.26389 | 30040 ft | 502 kts | 261° |
| 2026-05-07 00:08 | 35.68463 | -80.30527 | 31126 ft | 502 kts | 261° |
| 2026-05-07 00:09 | 35.67730 | -80.34678 | 32559 ft | 493 kts | 262° |
| 2026-05-07 00:09 | 35.67016 | -80.38722 | 33890 ft | 487 kts | 262° |
| 2026-05-07 00:09 | 35.66309 | -80.42716 | 34020 ft | 473 kts | 262° |
| 2026-05-07 00:09 | 35.65606 | -80.46639 | 34052 ft | 476 kts | 260° |
| 2026-05-07 00:10 | 35.63206 | -80.54273 | 34072 ft | 486 kts | 252° |
| 2026-05-07 00:10 | 35.60578 | -80.62049 | 34094 ft | 489 kts | 251° |
| 2026-05-07 00:11 | 35.57930 | -80.69866 | 34078 ft | 492 kts | 251° |
| 2026-05-07 00:11 | 35.55272 | -80.77691 | 34109 ft | 493 kts | 251° |
| 2026-05-07 00:12 | 35.52653 | -80.85383 | 34110 ft | 488 kts | 251° |
| 2026-05-07 00:12 | 35.50049 | -80.93015 | 34079 ft | 489 kts | 251° |
| 2026-05-07 00:13 | 35.47429 | -81.00673 | 34108 ft | 489 kts | 251° |
| 2026-05-07 00:13 | 35.44787 | -81.08373 | 34116 ft | 487 kts | 251° |
| 2026-05-07 00:14 | 35.42166 | -81.15992 | 34075 ft | 487 kts | 251° |
| 2026-05-07 00:14 | 35.39536 | -81.23624 | 34107 ft | 488 kts | 251° |
| 2026-05-07 00:15 | 35.36895 | -81.31263 | 34110 ft | 488 kts | 251° |
| 2026-05-07 00:15 | 35.34258 | -81.38875 | 34097 ft | 488 kts | 251° |
| 2026-05-07 00:16 | 35.31609 | -81.46502 | 34128 ft | 489 kts | 251° |
| 2026-05-07 00:16 | 35.28943 | -81.54156 | 34119 ft | 488 kts | 251° |
| 2026-05-07 00:17 | 35.26295 | -81.61745 | 34095 ft | 489 kts | 251° |
| 2026-05-07 00:17 | 35.23615 | -81.69403 | 34135 ft | 489 kts | 250° |
| 2026-05-07 00:18 | 35.20929 | -81.77064 | 34121 ft | 487 kts | 250° |
| 2026-05-07 00:18 | 35.18267 | -81.84636 | 34110 ft | 489 kts | 250° |
| 2026-05-07 00:19 | 35.15581 | -81.92254 | 34140 ft | 490 kts | 250° |
| 2026-05-07 00:19 | 35.12882 | -81.99892 | 34120 ft | 489 kts | 250° |
| 2026-05-07 00:20 | 35.10173 | -82.07542 | 34108 ft | 492 kts | 250° |
| 2026-05-07 00:20 | 35.07471 | -82.15150 | 34144 ft | 491 kts | 250° |
| 2026-05-07 00:21 | 35.04744 | -82.22816 | 34121 ft | 494 kts | 250° |
| 2026-05-07 00:21 | 35.01983 | -82.30431 | 34105 ft | 497 kts | 245° |
| 2026-05-07 00:22 | 34.97895 | -82.37323 | 34170 ft | 502 kts | 235° |
| 2026-05-07 00:22 | 34.93654 | -82.44032 | 34121 ft | 503 kts | 236° |
| 2026-05-07 00:23 | 34.89395 | -82.50806 | 34119 ft | 505 kts | 236° |
| 2026-05-07 00:23 | 34.85132 | -82.57549 | 34144 ft | 502 kts | 235° |
| 2026-05-07 00:24 | 34.83007 | -82.60892 | 33864 ft | 492 kts | 236° |
| 2026-05-07 00:24 | 34.80956 | -82.64175 | 32790 ft | 492 kts | 236° |
| 2026-05-07 00:24 | 34.78754 | -82.67342 | 31910 ft | 489 kts | 229° |
| 2026-05-07 00:24 | 34.76458 | -82.70367 | 31328 ft | 479 kts | 229° |
| 2026-05-07 00:25 | 34.74224 | -82.73289 | 30632 ft | 474 kts | 229° |
| 2026-05-07 00:25 | 34.72004 | -82.76184 | 29943 ft | 469 kts | 229° |
| 2026-05-07 00:25 | 34.69776 | -82.79089 | 29314 ft | 463 kts | 229° |
| 2026-05-07 00:25 | 34.67610 | -82.81908 | 28620 ft | 460 kts | 229° |
| 2026-05-07 00:26 | 34.65447 | -82.84723 | 27920 ft | 456 kts | 229° |
| 2026-05-07 00:26 | 34.63284 | -82.87534 | 27268 ft | 451 kts | 229° |
| 2026-05-07 00:26 | 34.61155 | -82.90299 | 26597 ft | 447 kts | 229° |
| 2026-05-07 00:26 | 34.59048 | -82.93033 | 25898 ft | 445 kts | 229° |
| 2026-05-07 00:27 | 34.56945 | -82.95761 | 25223 ft | 441 kts | 229° |
| 2026-05-07 00:27 | 34.54890 | -82.98424 | 24600 ft | 437 kts | 229° |
| 2026-05-07 00:27 | 34.52817 | -83.01105 | 24060 ft | 436 kts | 228° |
| 2026-05-07 00:27 | 34.50882 | -83.03924 | 24202 ft | 433 kts | 238° |
| 2026-05-07 00:28 | 34.49252 | -83.07041 | 24160 ft | 438 kts | 240° |
| 2026-05-07 00:28 | 34.47647 | -83.10148 | 24089 ft | 433 kts | 240° |
| 2026-05-07 00:28 | 34.46062 | -83.13221 | 24048 ft | 423 kts | 240° |
| 2026-05-07 00:28 | 34.44540 | -83.16174 | 23109 ft | 422 kts | 240° |
| 2026-05-07 00:29 | 34.42991 | -83.19183 | 22064 ft | 421 kts | 240° |
| 2026-05-07 00:29 | 34.41468 | -83.22137 | 21297 ft | 412 kts | 240° |
| 2026-05-07 00:30 | 34.37020 | -83.30750 | 18774 ft | 396 kts | 239° |
| 2026-05-07 00:30 | 34.35566 | -83.33558 | 17944 ft | 390 kts | 239° |
| 2026-05-07 00:30 | 34.34145 | -83.36303 | 17100 ft | 385 kts | 239° |
| 2026-05-07 00:30 | 34.32733 | -83.39029 | 16236 ft | 382 kts | 238° |
| 2026-05-07 00:31 | 34.31353 | -83.41693 | 15420 ft | 377 kts | 238° |
| 2026-05-07 00:31 | 34.29971 | -83.44356 | 14588 ft | 374 kts | 238° |
| 2026-05-07 00:31 | 34.28598 | -83.46999 | 13782 ft | 371 kts | 237° |
| 2026-05-07 00:31 | 34.27226 | -83.49636 | 13202 ft | 368 kts | 238° |
| 2026-05-07 00:32 | 34.25876 | -83.52229 | 12749 ft | 363 kts | 238° |
| 2026-05-07 00:32 | 34.24532 | -83.54810 | 12202 ft | 364 kts | 238° |
| 2026-05-07 00:32 | 34.23208 | -83.57351 | 12121 ft | 352 kts | 238° |
| 2026-05-07 00:32 | 34.21934 | -83.59798 | 12175 ft | 334 kts | 238° |
| 2026-05-07 00:33 | 34.20722 | -83.62122 | 12096 ft | 320 kts | 238° |
| 2026-05-07 00:33 | 34.19568 | -83.64333 | 12137 ft | 306 kts | 238° |
| 2026-05-07 00:33 | 34.18436 | -83.66499 | 12153 ft | 303 kts | 237° |
| 2026-05-07 00:33 | 34.17321 | -83.68633 | 12144 ft | 303 kts | 237° |
| 2026-05-07 00:34 | 34.16194 | -83.70789 | 12131 ft | 304 kts | 237° |
| 2026-05-07 00:34 | 34.15066 | -83.72948 | 12144 ft | 303 kts | 237° |
| 2026-05-07 00:34 | 34.13932 | -83.75111 | 12164 ft | 305 kts | 237° |
| 2026-05-07 00:34 | 34.12807 | -83.77257 | 12149 ft | 304 kts | 237° |
| 2026-05-07 00:35 | 34.11678 | -83.79410 | 12190 ft | 305 kts | 237° |
| 2026-05-07 00:35 | 34.10542 | -83.81576 | 12095 ft | 304 kts | 237° |
| 2026-05-07 00:35 | 34.09419 | -83.83717 | 12156 ft | 304 kts | 237° |
| 2026-05-07 00:35 | 34.08035 | -83.85629 | 12131 ft | 303 kts | 215° |
| 2026-05-07 00:36 | 34.06247 | -83.86948 | 12064 ft | 296 kts | 210° |
| 2026-05-07 00:36 | 34.04520 | -83.88266 | 11671 ft | 298 kts | 212° |
| 2026-05-07 00:36 | 34.02776 | -83.89645 | 11302 ft | 298 kts | 212° |
| 2026-05-07 00:36 | 34.01055 | -83.91035 | 11017 ft | 297 kts | 213° |
| 2026-05-07 00:37 | 33.99364 | -83.92411 | 10682 ft | 296 kts | 213° |
| 2026-05-07 00:37 | 33.97656 | -83.93807 | 10354 ft | 294 kts | 213° |
| 2026-05-07 00:37 | 33.95970 | -83.95187 | 10057 ft | 292 kts | 213° |
| 2026-05-07 00:37 | 33.94305 | -83.96554 | 9732 ft | 291 kts | 214° |
| 2026-05-07 00:38 | 33.92633 | -83.97926 | 9349 ft | 288 kts | 214° |
| 2026-05-07 00:38 | 33.90989 | -83.99275 | 9109 ft | 283 kts | 214° |
| 2026-05-07 00:38 | 33.89301 | -84.00327 | 9095 ft | 266 kts | 196° |
| 2026-05-07 00:38 | 33.87568 | -84.00890 | 8982 ft | 248 kts | 194° |
| 2026-05-07 00:39 | 33.85920 | -84.01408 | 8688 ft | 240 kts | 194° |
| 2026-05-07 00:39 | 33.84319 | -84.01907 | 8263 ft | 240 kts | 194° |
| 2026-05-07 00:39 | 33.82690 | -84.02406 | 7878 ft | 240 kts | 194° |
| 2026-05-07 00:39 | 33.81079 | -84.02886 | 7513 ft | 238 kts | 194° |
| 2026-05-07 00:40 | 33.79473 | -84.03357 | 7121 ft | 238 kts | 194° |
| 2026-05-07 00:40 | 33.77861 | -84.03816 | 6723 ft | 238 kts | 194° |
| 2026-05-07 00:40 | 33.76265 | -84.04264 | 6363 ft | 235 kts | 194° |
| 2026-05-07 00:40 | 33.74664 | -84.04703 | 6002 ft | 234 kts | 194° |
| 2026-05-07 00:41 | 33.73083 | -84.05134 | 5652 ft | 232 kts | 194° |
| 2026-05-07 00:41 | 33.71508 | -84.05565 | 5322 ft | 230 kts | 194° |
| 2026-05-07 00:41 | 33.69996 | -84.06094 | 5127 ft | 226 kts | 199° |
| 2026-05-07 00:41 | 33.68529 | -84.06809 | 5166 ft | 227 kts | 218° |
| 2026-05-07 00:42 | 33.67537 | -84.08244 | 5168 ft | 221 kts | 243° |
| 2026-05-07 00:42 | 33.66863 | -84.09809 | 5123 ft | 205 kts | 244° |
| 2026-05-07 00:42 | 33.66227 | -84.11289 | 5188 ft | 193 kts | 244° |
| 2026-05-07 00:42 | 33.65608 | -84.12726 | 5144 ft | 193 kts | 245° |
| 2026-05-07 00:43 | 33.65037 | -84.14143 | 5116 ft | 181 kts | 254° |
| 2026-05-07 00:43 | 33.64951 | -84.15578 | 5120 ft | 167 kts | 273° |
| 2026-05-07 00:43 | 33.64950 | -84.16933 | 4933 ft | 159 kts | 271° |
| 2026-05-07 00:43 | 33.64946 | -84.18240 | 4700 ft | 156 kts | 271° |
| 2026-05-07 00:44 | 33.64945 | -84.19529 | 4489 ft | 155 kts | 271° |
| 2026-05-07 00:44 | 33.64945 | -84.20821 | 4285 ft | 153 kts | 271° |
| 2026-05-07 00:44 | 33.64946 | -84.22091 | 4079 ft | 153 kts | 271° |
| 2026-05-07 00:44 | 33.64948 | -84.23364 | 3873 ft | 153 kts | 271° |
| 2026-05-07 00:45 | 33.64949 | -84.24633 | 3669 ft | 151 kts | 271° |
| 2026-05-07 00:45 | 33.64950 | -84.25895 | 3458 ft | 150 kts | 271° |
| 2026-05-07 00:45 | 33.64952 | -84.27146 | 3251 ft | 151 kts | 271° |
| 2026-05-07 00:45 | 33.64952 | -84.28395 | 3047 ft | 151 kts | 271° |
| 2026-05-07 00:46 | 33.64954 | -84.29653 | 2843 ft | 151 kts | 270° |
| 2026-05-07 00:46 | 33.64954 | -84.30914 | 2644 ft | 151 kts | 270° |
| 2026-05-07 00:46 | 33.64955 | -84.32162 | 2440 ft | 151 kts | 270° |
| 2026-05-07 00:46 | 33.64955 | -84.33417 | 2238 ft | 151 kts | 271° |
| 2026-05-07 00:47 | 33.64955 | -84.34677 | 2034 ft | 150 kts | 271° |
| 2026-05-07 00:47 | 33.64955 | -84.35928 | 1833 ft | 151 kts | 271° |
| 2026-05-07 00:47 | 33.64956 | -84.37186 | 1632 ft | 151 kts | 271° |
| 2026-05-07 00:47 | 33.64956 | -84.38454 | 1428 ft | 151 kts | 271° |
| 2026-05-07 00:48 | 33.64955 | -84.39703 | 1228 ft | 151 kts | 271° |
| 2026-05-07 00:48 | 33.64952 | -84.40973 | 1046 ft | 150 kts | 271° |
| 2026-05-07 00:48 | 33.64948 | -84.42181 | 988 ft | 135 kts | 272° |
| 2026-05-07 00:48 | 33.64955 | -84.43054 | 1005 ft | 68 kts | 270° |
| 2026-05-07 00:49 | 33.64954 | -84.43522 | 1014 ft | 42 kts | 270° |
| 2026-05-07 00:49 | 33.64955 | -84.43737 | 1018 ft | 13 kts | 270° |
| 2026-05-07 00:49 | 33.64951 | -84.43830 | 1020 ft | 9 kts | 256° |
| 2026-05-07 00:49 | 33.64892 | -84.43881 | 1022 ft | 7 kts | 180° |
| 2026-05-07 00:50 | 33.64828 | -84.43861 | 1023 ft | 11 kts | 154° |
| 2026-05-07 00:50 | 33.64756 | -84.43825 | 1023 ft | 13 kts | 170° |
| 2026-05-07 00:50 | 33.64645 | -84.43821 | 1022 ft | 17 kts | 181° |
| 2026-05-07 00:50 | 33.64546 | -84.43785 | 1022 ft | 16 kts | 134° |
| 2026-05-07 00:51 | 33.64476 | -84.43730 | 1021 ft | 13 kts | 164° |
| 2026-05-07 00:51 | 33.64408 | -84.43722 | 1020 ft | 5 kts | 179° |
| 2026-05-07 00:51 | 33.64377 | -84.43714 | 1020 ft | 3 kts | 150° |
| 2026-05-07 00:51 | 33.64375 | -84.43684 | 1020 ft | 5 kts | 78° |
| 2026-05-07 00:52 | 33.64379 | -84.43655 | 1019 ft | 1 kts | 88° |
| 2026-05-07 00:52 | 33.64379 | -84.43652 | 1019 ft | 0 kts | 88° |